Time;durP1;ratioP1;P1;durP2;ratioP2;P2;SDS_P1;SDS_P2;PMS_P1;PMS_P2;Temp;Humidity;BMP_temperature;BMP_pressure;BME280_temperature;BME280_humidity;BME280_pressure;Samples;Min_cycle;Max_cycle;Signal;HPM_P1;HPM_P2
2022/04/07 00:00:47;;;;;;;4.15;1.10;;;;;;;19.91;46.81;99186.81;5014178;28;20680;-57
2022/04/07 00:03:13;;;;;;;2.72;0.95;;;;;;;19.88;46.58;99180.06;5014425;28;20026;-58
2022/04/07 00:05:41;;;;;;;3.60;1.20;;;;;;;19.88;46.59;99173.97;5013332;28;20485;-57
2022/04/07 00:08:10;;;;;;;3.80;0.90;;;;;;;19.87;46.85;99164.41;5013821;28;20056;-57
2022/04/07 00:10:36;;;;;;;3.40;1.00;;;;;;;19.87;46.79;99167.03;5014282;28;20041;-57
2022/04/07 00:13:03;;;;;;;3.17;1.35;;;;;;;19.85;46.69;99153.16;5012807;28;20042;-57
2022/04/07 00:15:28;;;;;;;2.10;0.90;;;;;;;19.84;46.99;99151.53;5014044;28;20029;-57
2022/04/07 00:17:54;;;;;;;4.82;1.40;;;;;;;19.82;46.77;99149.06;5013803;28;20029;-58
2022/04/07 00:20:20;;;;;;;2.93;1.03;;;;;;;19.81;46.84;99147.41;5012372;28;20030;-58
2022/04/07 00:22:47;;;;;;;3.55;1.00;;;;;;;19.81;46.63;99152.69;5013809;28;20283;-58
2022/04/07 00:25:13;;;;;;;2.30;0.93;;;;;;;19.79;46.59;99140.66;5013576;28;20030;-58
2022/04/07 00:27:41;;;;;;;2.55;0.88;;;;;;;19.79;46.71;99136.19;5012941;28;20489;-58
2022/04/07 00:30:09;;;;;;;3.90;1.00;;;;;;;19.78;46.50;99134.53;5013671;28;20116;-58
2022/04/07 00:32:40;;;;;;;3.17;0.98;;;;;;;19.76;46.68;99123.34;5013995;28;20032;-58
2022/04/07 00:35:05;;;;;;;3.80;0.98;;;;;;;19.74;46.64;99107.63;5012936;28;20032;-56
2022/04/07 00:37:30;;;;;;;3.17;1.00;;;;;;;19.74;46.53;99109.41;5013802;28;20386;-58
2022/04/07 00:39:56;;;;;;;4.45;0.80;;;;;;;19.74;46.52;99096.22;5012802;28;20080;-59
2022/04/07 00:42:21;;;;;;;3.03;0.90;;;;;;;19.73;46.55;99105.16;5013636;28;20557;-58
2022/04/07 00:44:46;;;;;;;2.17;0.83;;;;;;;19.72;46.60;99106.16;5013931;28;20631;-57
2022/04/07 00:47:11;;;;;;;3.20;1.23;;;;;;;19.71;46.70;99096.56;5012604;28;20267;-57
2022/04/07 00:49:37;;;;;;;3.20;1.02;;;;;;;19.68;46.73;99092.47;5013710;28;20076;-58
2022/04/07 00:52:07;;;;;;;2.75;1.02;;;;;;;19.68;46.79;99078.44;5013273;28;20480;-57
2022/04/07 00:54:33;;;;;;;4.47;1.08;;;;;;;19.68;46.56;99083.72;5012803;28;20036;-57
2022/04/07 00:56:59;;;;;;;4.07;0.95;;;;;;;19.66;46.44;99080.41;5013019;28;20108;-58
2022/04/07 00:59:25;;;;;;;3.50;1.00;;;;;;;19.64;46.68;99080.59;5013347;28;20026;-59
2022/04/07 01:01:50;;;;;;;3.25;1.00;;;;;;;19.63;46.74;99073.69;5012466;28;20033;-58
2022/04/07 01:04:19;;;;;;;2.28;0.95;;;;;;;19.63;46.56;99075.50;5013434;28;20026;-58
2022/04/07 01:06:47;;;;;;;3.28;1.23;;;;;;;19.62;46.85;99065.94;5013191;28;20034;-58
2022/04/07 01:09:14;;;;;;;4.45;1.40;;;;;;;19.62;46.58;99069.41;5012269;28;20105;-58
2022/04/07 01:11:40;;;;;;;2.70;0.85;;;;;;;19.61;46.61;99066.94;5013062;28;20026;-58
2022/04/07 01:14:05;;;;;;;4.03;1.08;;;;;;;19.60;46.75;99052.06;5012487;28;20107;-58
2022/04/07 01:16:31;;;;;;;3.65;1.15;;;;;;;19.57;46.76;99056.72;5012418;28;20470;-58
2022/04/07 01:18:59;;;;;;;2.72;0.93;;;;;;;19.56;46.67;99039.19;5012847;28;20025;-58
2022/04/07 01:21:25;;;;;;;3.22;0.93;;;;;;;19.55;46.85;99040.22;5012966;28;20040;-57
2022/04/07 01:24:03;;;;;;;3.13;1.00;;;;;;;19.55;46.82;99036.72;5011952;28;20025;-57
2022/04/07 01:26:37;;;;;;;3.88;1.10;;;;;;;19.53;46.89;99023.69;5013160;28;20036;-57
2022/04/07 01:29:04;;;;;;;3.58;1.00;;;;;;;19.53;46.88;99014.97;5012345;28;20038;-58
2022/04/07 01:31:31;;;;;;;4.18;1.10;;;;;;;19.52;46.70;99019.44;5012609;28;20092;-58
2022/04/07 01:33:58;;;;;;;3.88;1.10;;;;;;;19.52;46.88;99008.88;5012715;28;20034;-58
2022/04/07 01:36:28;;;;;;;3.97;1.30;;;;;;;19.50;46.78;99000.31;5012001;28;20056;-57
2022/04/07 01:38:55;;;;;;;4.32;0.80;;;;;;;19.50;46.70;98996.81;5012419;28;20485;-58
2022/04/07 01:41:21;;;;;;;4.13;0.90;;;;;;;19.49;46.97;98997.84;5012997;28;20028;-58
2022/04/07 01:43:49;;;;;;;2.42;0.80;;;;;;;19.47;46.43;98986.59;5012151;28;20022;-58
2022/04/07 01:46:14;;;;;;;3.47;0.95;;;;;;;19.48;46.93;98975.88;5012839;28;20121;-58
2022/04/07 01:48:41;;;;;;;3.78;1.00;;;;;;;19.49;46.85;98976.72;5012850;28;20053;-59
2022/04/07 01:51:10;;;;;;;3.05;1.00;;;;;;;19.47;46.59;98954.91;5011590;28;20351;-59
2022/04/07 01:53:36;;;;;;;4.18;1.02;;;;;;;19.46;46.74;98974.41;5012875;28;20025;-59
2022/04/07 01:56:08;;;;;;;3.75;1.00;;;;;;;19.45;46.47;98962.19;5012627;28;20029;-58
2022/04/07 01:58:35;;;;;;;3.08;1.00;;;;;;;19.48;46.91;98959.19;5011691;28;20493;-57
2022/04/07 02:01:00;;;;;;;2.85;0.93;;;;;;;19.47;47.04;98955.75;5012357;28;20484;-58
2022/04/07 02:03:26;;;;;;;2.80;0.90;;;;;;;19.51;46.95;98951.72;5012675;28;20046;-58
2022/04/07 02:05:51;;;;;;;4.40;1.20;;;;;;;19.54;46.85;98964.59;5011481;28;20358;-58
2022/04/07 02:08:16;;;;;;;3.30;1.10;;;;;;;19.57;47.07;98955.50;5012790;28;20501;-58
2022/04/07 02:10:41;;;;;;;3.43;0.90;;;;;;;19.60;46.97;98957.78;5012691;28;20053;-58
2022/04/07 02:13:07;;;;;;;4.43;1.60;;;;;;;19.61;46.72;98956.75;5011396;28;20295;-58
2022/04/07 02:15:32;;;;;;;2.70;1.00;;;;;;;19.64;46.43;98942.38;5012681;28;20271;-58
2022/04/07 02:17:58;;;;;;;3.47;1.17;;;;;;;19.65;46.87;98947.47;5012199;28;20378;-58
2022/04/07 02:20:23;;;;;;;2.85;0.88;;;;;;;19.67;46.53;98940.19;5011667;28;20040;-58
2022/04/07 02:22:49;;;;;;;4.30;1.02;;;;;;;19.69;46.51;98938.19;5012443;28;20418;-58
2022/04/07 02:25:14;;;;;;;3.33;0.98;;;;;;;19.69;46.55;98925.00;5012592;28;20189;-58
2022/04/07 02:27:41;;;;;;;3.55;0.95;;;;;;;19.71;46.47;98901.00;5011699;28;20022;-58
2022/04/07 02:30:12;;;;;;;3.83;1.00;;;;;;;19.71;46.27;98922.97;5012036;28;20477;-58
2022/04/07 02:32:37;;;;;;;2.95;0.90;;;;;;;19.71;46.16;98917.69;5011504;28;20026;-58
2022/04/07 02:35:03;;;;;;;5.15;1.20;;;;;;;19.71;46.20;98927.41;5011956;28;20028;-58
2022/04/07 02:37:28;;;;;;;4.05;1.00;;;;;;;19.72;45.83;98921.16;5012417;28;20022;-58
2022/04/07 02:39:54;;;;;;;4.75;1.02;;;;;;;19.72;46.00;98914.03;5011392;28;20029;-58
2022/04/07 02:42:19;;;;;;;4.32;1.50;;;;;;;19.71;46.01;98907.13;5012743;28;20033;-58
2022/04/07 02:44:45;;;;;;;5.70;1.00;;;;;;;19.70;46.03;98905.47;5015921;28;20045;-58
2022/04/07 02:47:10;;;;;;;5.07;1.02;;;;;;;19.70;45.45;98900.19;5014697;28;20476;-58
2022/04/07 02:49:39;;;;;;;4.20;1.13;;;;;;;19.70;45.73;98899.38;5015550;28;20022;-58
2022/04/07 02:52:10;;;;;;;4.95;1.23;;;;;;;19.68;45.89;98885.53;5015650;28;20030;-58
2022/04/07 02:54:37;;;;;;;4.25;1.20;;;;;;;19.69;45.98;98873.94;5014893;28;20382;-58
2022/04/07 02:57:03;;;;;;;3.28;0.90;;;;;;;19.70;46.19;98888.81;5015178;28;20030;-58
2022/04/07 02:59:28;;;;;;;6.15;1.50;;;;;;;19.70;46.45;98872.94;5015465;28;20470;-58
2022/04/07 03:01:56;;;;;;;5.60;1.00;;;;;;;19.72;46.37;98869.09;5014277;28;20033;-58
2022/04/07 03:04:22;;;;;;;4.47;1.08;;;;;;;19.74;46.35;98858.34;5015683;28;20287;-58
2022/04/07 03:06:47;;;;;;;4.10;1.10;;;;;;;19.74;46.02;98847.78;5015445;28;20034;-58
2022/04/07 03:09:12;;;;;;;5.35;1.25;;;;;;;19.75;45.98;98844.13;5014407;28;20021;-58
2022/04/07 03:11:37;;;;;;;3.53;1.10;;;;;;;19.77;46.20;98833.41;5015348;28;20034;-59
2022/04/07 03:14:02;;;;;;;5.70;1.10;;;;;;;19.77;45.86;98830.78;5014602;28;20280;-59
2022/04/07 03:16:28;;;;;;;3.30;1.00;;;;;;;19.77;45.93;98831.59;5014278;28;20038;-58
2022/04/07 03:18:53;;;;;;;5.23;1.10;;;;;;;19.77;45.79;98823.66;5015054;28;20112;-58
2022/04/07 03:21:19;;;;;;;5.32;1.20;;;;;;;19.77;45.74;98817.56;5015191;28;20264;-58
2022/04/07 03:23:44;;;;;;;4.07;1.10;;;;;;;19.77;45.65;98802.50;5014609;28;20021;-58
2022/04/07 03:26:09;;;;;;;4.47;1.17;;;;;;;19.76;45.63;98792.97;5014657;28;20030;-58
2022/04/07 03:28:35;;;;;;;4.53;1.20;;;;;;;19.77;45.52;98801.69;5014636;28;20044;-58
2022/04/07 03:31:00;;;;;;;4.00;0.90;;;;;;;19.75;45.52;98793.91;5014132;28;20061;-58
2022/04/07 03:33:25;;;;;;;4.32;1.20;;;;;;;19.75;45.57;98793.91;5015044;28;20492;-58
2022/04/07 03:35:51;;;;;;;2.45;0.95;;;;;;;19.75;45.39;98793.91;5014195;28;20101;-58
2022/04/07 03:38:16;;;;;;;4.72;1.30;;;;;;;19.73;45.48;98786.19;5015555;28;20465;-58
2022/04/07 03:40:41;;;;;;;5.87;1.17;;;;;;;19.72;45.20;98786.38;5015682;28;20034;-58
2022/04/07 03:43:09;;;;;;;4.03;1.00;;;;;;;19.73;45.37;98777.44;5014215;28;20280;-57
2022/04/07 03:45:35;;;;;;;4.60;1.00;;;;;;;19.72;45.11;98778.44;5014835;28;20280;-58
2022/04/07 03:48:01;;;;;;;5.75;1.33;;;;;;;19.71;45.53;98785.56;5014216;28;20018;-58
2022/04/07 03:50:29;;;;;;;4.45;1.20;;;;;;;19.71;45.94;98777.63;5013745;28;20481;-58
2022/04/07 03:52:54;;;;;;;4.45;1.00;;;;;;;19.72;45.55;98765.22;5014247;28;20038;-57
2022/04/07 03:55:20;;;;;;;4.20;0.85;;;;;;;19.72;45.90;98759.94;5014495;28;20377;-58
2022/04/07 03:57:46;;;;;;;3.92;1.00;;;;;;;19.73;45.66;98751.00;5013518;28;20450;-58
2022/04/07 04:00:11;;;;;;;4.10;1.10;;;;;;;19.74;45.63;98736.78;5014070;28;20104;-58
2022/04/07 04:02:37;;;;;;;5.35;1.10;;;;;;;19.75;45.68;98733.94;5014533;28;20022;-58
2022/04/07 04:05:02;;;;;;;4.00;1.10;;;;;;;19.77;45.64;98717.94;5013329;28;20037;-58
2022/04/07 04:07:28;;;;;;;6.40;1.08;;;;;;;19.78;45.69;98701.09;5014367;28;20266;-58
2022/04/07 04:09:53;;;;;;;4.50;1.40;;;;;;;19.78;45.92;98711.66;5013817;28;20072;-58
2022/04/07 04:12:18;;;;;;;3.40;1.02;;;;;;;19.78;45.64;98698.44;5013208;28;20029;-58
2022/04/07 04:14:43;;;;;;;2.93;0.80;;;;;;;19.77;45.38;98688.88;5014051;28;20040;-58
2022/04/07 04:17:09;;;;;;;3.22;1.20;;;;;;;19.76;45.47;98668.75;5013934;28;20025;-58
2022/04/07 04:19:37;;;;;;;4.50;1.00;;;;;;;19.74;45.43;98658.34;5013380;28;20390;-58
2022/04/07 04:22:02;;;;;;;4.60;1.13;;;;;;;19.75;45.38;98659.13;5013776;28;20267;-58
2022/04/07 04:24:27;;;;;;;4.25;1.30;;;;;;;19.74;45.11;98637.19;5013747;28;20018;-58
2022/04/07 04:26:53;;;;;;;3.22;0.90;;;;;;;19.74;44.93;98625.78;5013098;28;20037;-58
2022/04/07 04:29:18;;;;;;;3.42;0.93;;;;;;;19.73;44.92;98622.31;5013721;28;20034;-58
2022/04/07 04:31:43;;;;;;;4.10;1.20;;;;;;;19.74;44.85;98631.06;5013920;28;20061;-58
2022/04/07 04:34:12;;;;;;;4.63;1.02;;;;;;;19.71;45.12;98631.44;5012794;28;20870;-58
2022/04/07 04:36:40;;;;;;;3.58;1.10;;;;;;;19.71;44.78;98619.06;5013535;28;20028;-58
2022/04/07 04:39:05;;;;;;;3.30;0.85;;;;;;;19.70;44.98;98614.78;5012523;28;20046;-59
2022/04/07 04:41:31;;;;;;;4.05;1.05;;;;;;;19.69;45.01;98615.81;5013691;28;20026;-58
2022/04/07 04:43:56;;;;;;;5.32;1.30;;;;;;;19.70;45.37;98603.41;5013149;28;20480;-58
2022/04/07 04:46:21;;;;;;;3.75;0.95;;;;;;;19.69;45.58;98602.59;5012665;28;20096;-58
2022/04/07 04:48:47;;;;;;;3.22;0.90;;;;;;;19.71;45.41;98608.50;5013622;28;20068;-58
2022/04/07 04:51:12;;;;;;;3.20;0.90;;;;;;;19.72;45.65;98599.53;5013317;28;20022;-59
2022/04/07 04:53:38;;;;;;;4.68;0.95;;;;;;;19.74;45.39;98591.44;5012678;28;20275;-58
2022/04/07 04:56:06;;;;;;;3.65;0.93;;;;;;;19.75;45.54;98580.66;5013210;28;20034;-59
2022/04/07 04:58:34;;;;;;;2.70;0.75;;;;;;;19.75;45.55;98585.16;5013454;28;20036;-58
2022/04/07 05:01:00;;;;;;;2.15;0.70;;;;;;;19.77;45.63;98569.13;5012446;28;20040;-59
2022/04/07 05:03:25;;;;;;;3.57;0.90;;;;;;;19.78;45.59;98554.91;5013519;28;20113;-59
2022/04/07 05:05:50;;;;;;;2.47;0.70;;;;;;;19.78;45.57;98528.50;5012317;28;20271;-59
2022/04/07 05:08:18;;;;;;;2.60;0.90;;;;;;;19.79;45.75;98530.94;5012501;28;20385;-58
2022/04/07 05:10:43;;;;;;;3.67;0.70;;;;;;;19.79;45.92;98525.66;5013258;28;20030;-58
2022/04/07 05:13:09;;;;;;;2.88;0.70;;;;;;;19.80;46.30;98527.28;5012610;28;20173;-59
2022/04/07 05:15:36;;;;;;;3.78;0.80;;;;;;;19.80;46.26;98523.81;5012609;28;20461;-59
2022/04/07 05:18:01;;;;;;;3.22;0.80;;;;;;;19.83;46.47;98534.00;5012786;28;20030;-59
2022/04/07 05:20:26;;;;;;;2.50;0.70;;;;;;;19.83;46.55;98508.38;5012899;28;20041;-58
2022/04/07 05:22:52;;;;;;;2.08;0.70;;;;;;;19.85;46.54;98513.47;5011977;28;20030;-57
2022/04/07 05:25:18;;;;;;;2.25;0.70;;;;;;;19.87;46.58;98516.78;5012911;28;20077;-57
2022/04/07 05:27:45;;;;;;;2.42;0.63;;;;;;;19.88;46.03;98497.25;5012706;28;20117;-58
2022/04/07 05:30:13;;;;;;;3.10;0.70;;;;;;;19.89;46.57;98493.59;5012037;28;20033;-58
2022/04/07 05:32:39;;;;;;;3.40;0.70;;;;;;;19.90;46.67;98485.47;5012997;28;20029;-58
2022/04/07 05:35:04;;;;;;;3.35;0.77;;;;;;;19.94;46.62;98489.34;5012465;28;20572;-58
2022/04/07 05:37:30;;;;;;;3.45;0.90;;;;;;;19.97;46.80;98476.78;5011944;28;20121;-56
2022/04/07 05:39:55;;;;;;;3.22;0.90;;;;;;;19.99;46.89;98482.69;5012608;28;20026;-59
2022/04/07 05:42:20;;;;;;;2.83;0.68;;;;;;;19.98;46.93;98470.47;5011968;28;20091;-59
2022/04/07 05:44:48;;;;;;;5.03;0.83;;;;;;;19.99;47.16;98470.28;5012672;28;20041;-57
2022/04/07 05:47:13;;;;;;;3.15;0.65;;;;;;;19.98;47.22;98459.88;5012850;28;20303;-57
2022/04/07 05:49:39;;;;;;;2.85;0.70;;;;;;;19.98;47.46;98452.78;5012063;28;20145;-57
2022/04/07 05:52:04;;;;;;;4.40;1.00;;;;;;;20.01;47.25;98448.94;5012424;28;20022;-58
2022/04/07 05:54:33;;;;;;;2.92;0.70;;;;;;;20.03;47.42;98420.50;5012610;28;20441;-57
2022/04/07 05:56:58;;;;;;;2.78;0.80;;;;;;;20.04;47.44;98414.16;5011368;28;20113;-58
2022/04/07 05:59:24;;;;;;;3.60;0.90;;;;;;;20.05;47.25;98415.81;5012741;28;20045;-57
2022/04/07 06:01:49;;;;;;;2.55;0.80;;;;;;;20.08;46.42;98407.50;5012289;28;20034;-58
2022/04/07 06:04:17;;;;;;;4.25;0.80;;;;;;;20.09;46.81;98402.00;5011890;28;20470;-58
2022/04/07 06:06:42;;;;;;;3.22;1.02;;;;;;;20.09;47.48;98394.06;5012600;28;20133;-59
2022/04/07 06:09:08;;;;;;;3.05;0.90;;;;;;;20.08;47.75;98394.28;5012210;28;20058;-58
2022/04/07 06:11:33;;;;;;;3.75;0.90;;;;;;;20.08;47.79;98384.50;5011699;28;20389;-58
2022/04/07 06:13:59;;;;;;;5.47;1.80;;;;;;;20.08;47.90;98384.50;5011989;28;20038;-58
2022/04/07 06:16:24;;;;;;;2.60;0.82;;;;;;;20.10;47.95;98379.03;5013105;28;20022;-57
2022/04/07 06:18:51;;;;;;;4.63;0.90;;;;;;;20.10;47.66;98377.19;5014898;28;20092;-57
2022/04/07 06:21:43;;;;;;;4.13;1.00;;;;;;;20.14;48.07;98364.41;5016225;28;20022;-61
2022/04/07 06:24:08;;;;;;;3.08;0.80;;;;;;;20.16;48.21;98351.00;5015727;28;20046;-57
2022/04/07 06:26:34;;;;;;;4.20;1.00;;;;;;;20.21;48.03;98336.13;5015213;28;20073;-57
2022/04/07 06:28:59;;;;;;;4.90;1.00;;;;;;;20.24;47.82;98342.88;5015981;28;20030;-57
2022/04/07 06:31:24;;;;;;;3.03;0.82;;;;;;;20.28;47.38;98344.09;5016540;28;20275;-57
2022/04/07 06:33:49;;;;;;;5.25;1.00;;;;;;;20.29;47.59;98327.22;5015088;28;20378;-58
2022/04/07 06:36:15;;;;;;;3.70;0.90;;;;;;;20.27;48.06;98326.59;5016073;28;20112;-58
2022/04/07 06:38:40;;;;;;;5.33;1.23;;;;;;;20.25;48.04;98308.28;5014987;28;20298;-59
2022/04/07 06:41:06;;;;;;;4.00;1.00;;;;;;;20.23;48.21;98302.38;5015720;28;20628;-58
2022/04/07 06:43:31;;;;;;;3.80;1.10;;;;;;;20.24;48.23;98303.19;5015797;28;20486;-59
2022/04/07 06:45:57;;;;;;;2.77;0.80;;;;;;;20.26;48.19;98293.22;5014675;28;20033;-58
2022/04/07 06:48:22;;;;;;;2.87;0.80;;;;;;;20.29;48.10;98287.53;5015742;28;20271;-58
2022/04/07 06:50:47;;;;;;;4.22;1.00;;;;;;;20.29;48.20;98261.91;5015777;28;20755;-58
2022/04/07 06:53:12;;;;;;;2.97;0.97;;;;;;;20.32;48.17;98254.59;5014504;28;20028;-57
2022/04/07 06:55:38;;;;;;;4.32;1.00;;;;;;;20.36;48.07;98261.09;5015684;28;20284;-58
2022/04/07 06:58:10;;;;;;;2.58;0.77;;;;;;;20.40;48.15;98252.56;5015283;28;20029;-60
2022/04/07 07:00:41;;;;;;;2.70;0.90;;;;;;;20.40;48.05;98241.19;5014876;28;20026;-58
2022/04/07 07:03:06;;;;;;;4.22;0.80;;;;;;;20.38;48.40;98222.06;5015162;28;20057;-59
2022/04/07 07:05:36;;;;;;;5.47;1.00;;;;;;;20.37;48.33;98217.78;5015372;28;20026;-57
2022/04/07 07:08:11;;;;;;;4.45;1.38;;;;;;;20.40;48.18;98204.94;5014209;28;20271;-58
2022/04/07 07:10:37;;;;;;;5.35;1.48;;;;;;;20.41;47.92;98208.41;5015456;28;20025;-58
2022/04/07 07:13:02;;;;;;;4.68;0.80;;;;;;;20.44;48.08;98200.91;5014872;28;20049;-58
2022/04/07 07:15:30;;;;;;;5.07;1.13;;;;;;;20.47;47.88;98181.97;5014358;28;20025;-58
2022/04/07 07:17:55;;;;;;;3.92;0.93;;;;;;;20.48;47.71;98182.78;5014933;28;20326;-58
2022/04/07 07:20:20;;;;;;;6.93;1.20;;;;;;;20.47;47.84;98159.97;5015212;28;20053;-58
2022/04/07 07:22:46;;;;;;;4.40;0.75;;;;;;;20.47;47.46;98158.16;5014605;28;20046;-58
2022/04/07 07:25:12;;;;;;;4.78;0.80;;;;;;;20.48;47.64;98149.19;5014942;28;20529;-58
2022/04/07 07:27:39;;;;;;;3.35;0.77;;;;;;;20.51;47.55;98137.38;5014944;28;20037;-58
2022/04/07 07:30:09;;;;;;;3.67;0.80;;;;;;;20.53;47.43;98126.59;5013499;28;20046;-59
2022/04/07 07:32:37;;;;;;;3.08;1.10;;;;;;;20.55;47.59;98122.72;5014952;28;20046;-58
2022/04/07 07:35:04;;;;;;;2.85;0.70;;;;;;;20.57;47.61;98117.22;5013655;28;20413;-59
2022/04/07 07:37:29;;;;;;;3.50;0.80;;;;;;;20.55;47.62;98117.41;5014918;28;20030;-58
2022/04/07 07:40:06;;;;;;;6.13;0.77;;;;;;;20.55;47.76;98108.69;5014675;28;20075;-58
2022/04/07 07:42:32;;;;;;;3.58;0.90;;;;;;;20.53;47.54;98102.78;5014064;28;20029;-59
2022/04/07 07:44:57;;;;;;;5.20;1.02;;;;;;;20.55;47.74;98096.25;5014308;28;20026;-58
2022/04/07 07:47:22;;;;;;;3.95;0.90;;;;;;;20.55;47.79;98124.56;5014515;28;20031;-58
2022/04/07 07:49:50;;;;;;;3.92;0.98;;;;;;;20.55;47.81;98305.28;5013865;28;20160;-58
2022/04/07 07:52:16;;;;;;;5.45;1.13;;;;;;;20.56;47.18;98306.09;5014690;28;20059;-57
2022/04/07 07:54:41;;;;;;;4.85;0.98;;;;;;;20.55;47.14;98304.47;5014534;28;20026;-58
2022/04/07 07:57:06;;;;;;;4.87;0.90;;;;;;;20.54;47.32;98306.31;5013411;28;20034;-58
2022/04/07 07:59:32;;;;;;;9.30;1.10;;;;;;;20.56;47.28;98301.63;5014358;28;20293;-58
2022/04/07 08:01:57;;;;;;;5.43;1.30;;;;;;;20.58;47.32;98289.00;5013914;28;20307;-58
2022/04/07 08:04:22;;;;;;;2.33;0.70;;;;;;;20.61;47.26;98287.78;5013789;28;20064;-59
2022/04/07 08:06:47;;;;;;;4.32;0.70;;;;;;;20.62;47.29;98284.13;5014550;28;20106;-60
2022/04/07 08:09:14;;;;;;;4.75;0.75;;;;;;;20.64;47.29;98277.63;5014166;28;20572;-59
2022/04/07 08:11:45;;;;;;;4.10;0.80;;;;;;;20.66;47.35;98272.16;5013563;28;20076;-60
2022/04/07 08:14:10;;;;;;;5.13;0.70;;;;;;;20.70;47.37;98278.66;5013651;28;20096;-61
2022/04/07 08:16:36;;;;;;;2.88;0.70;;;;;;;20.71;47.23;98264.44;5013905;28;20030;-60
2022/04/07 08:19:02;;;;;;;7.50;1.20;;;;;;;20.67;47.36;98271.13;5013236;28;20097;-59
2022/04/07 08:21:27;;;;;;;4.63;0.82;;;;;;;20.68;47.38;98266.66;5014173;28;20459;-59
2022/04/07 08:23:53;;;;;;;5.60;0.97;;;;;;;20.70;47.53;98262.00;5013716;28;20030;-59
2022/04/07 08:26:19;;;;;;;2.53;0.70;;;;;;;20.69;47.68;98265.63;5013362;28;20322;-60
2022/04/07 08:28:50;;;;;;;4.15;0.85;;;;;;;20.69;47.67;98265.63;5014097;28;20042;-59
2022/04/07 08:31:16;;;;;;;4.60;0.85;;;;;;;20.66;47.90;98253.63;5013811;28;20080;-58
2022/04/07 08:33:41;;;;;;;2.53;0.63;;;;;;;20.68;47.75;98253.41;5014268;28;20378;-58
2022/04/07 08:36:07;;;;;;;2.25;0.70;;;;;;;20.71;47.87;98271.53;5013824;28;20025;-58
2022/04/07 08:38:32;;;;;;;3.30;0.77;;;;;;;20.74;47.69;98264.00;5013081;28;20042;-59
2022/04/07 08:40:59;;;;;;;3.42;0.90;;;;;;;20.74;47.54;98265.84;5012756;28;20026;-59
2022/04/07 08:43:25;;;;;;;2.55;0.60;;;;;;;20.75;47.48;98267.47;5013654;28;20030;-59
2022/04/07 08:45:50;;;;;;;4.47;0.85;;;;;;;20.72;47.43;98260.75;5012628;28;20381;-59
2022/04/07 08:48:16;;;;;;;2.95;0.63;;;;;;;20.67;47.66;98257.91;5013775;28;20037;-59
2022/04/07 08:50:43;;;;;;;3.73;0.77;;;;;;;20.67;48.01;98236.72;5013751;28;20022;-59
2022/04/07 08:53:10;;;;;;;3.95;0.85;;;;;;;20.68;47.65;98248.13;5012025;28;20279;-59
2022/04/07 08:55:36;;;;;;;2.00;0.45;;;;;;;20.69;47.30;98255.84;5013404;28;20485;-59
2022/04/07 08:58:02;;;;;;;2.95;0.88;;;;;;;20.69;47.64;98258.50;5013022;28;20029;-60
2022/04/07 09:00:27;;;;;;;5.50;0.80;;;;;;;20.70;47.77;98259.34;5012615;28;20491;-58
2022/04/07 09:02:53;;;;;;;3.40;0.90;;;;;;;20.70;47.77;98254.06;5013148;28;20128;-58
2022/04/07 09:05:26;;;;;;;2.75;0.60;;;;;;;20.73;47.88;98246.50;5013596;28;20017;-58
2022/04/07 09:07:56;;;;;;;3.65;0.75;;;;;;;20.73;47.95;98246.50;5012407;28;20033;-58
2022/04/07 09:10:24;;;;;;;3.83;0.73;;;;;;;20.75;47.90;98256.91;5013329;28;20432;-58
2022/04/07 09:13:03;;;;;;;2.47;0.45;;;;;;;20.76;48.04;98253.22;5012671;28;20104;-58
2022/04/07 09:15:30;;;;;;;2.53;0.68;;;;;;;20.80;47.82;98249.16;5012596;28;20076;-58
2022/04/07 09:17:55;;;;;;;3.53;0.90;;;;;;;20.82;47.99;98252.41;5012930;28;20370;-58
2022/04/07 09:20:22;;;;;;;4.03;0.90;;;;;;;20.81;48.04;98259.53;5012493;28;20022;-58
2022/04/07 09:22:55;;;;;;;4.82;0.82;;;;;;;20.83;48.19;98254.84;5012971;28;20048;-59
2022/04/07 09:25:20;;;;;;;2.53;0.73;;;;;;;20.82;48.05;98252.41;5013168;28;20454;-59
2022/04/07 09:27:48;;;;;;;3.50;0.80;;;;;;;20.84;47.98;98263.63;5012421;28;20057;-59
2022/04/07 09:30:13;;;;;;;7.13;1.05;;;;;;;20.82;48.07;98255.03;5013153;28;20125;-59
2022/04/07 09:32:43;;;;;;;6.77;0.80;;;;;;;20.81;48.47;98259.53;5013065;28;20440;-58
2022/04/07 09:35:11;;;;;;;2.50;0.80;;;;;;;20.79;48.36;98260.75;5012002;28;20275;-59
2022/04/07 09:37:38;;;;;;;3.42;0.70;;;;;;;20.81;48.41;98274.59;5013117;28;20046;-60
2022/04/07 09:40:05;;;;;;;3.20;0.77;;;;;;;20.81;47.85;98274.59;5012840;28;20018;-58
2022/04/07 09:42:33;;;;;;;4.88;0.90;;;;;;;20.76;47.06;98277.03;5012320;28;20065;-59
2022/04/07 09:45:00;;;;;;;5.22;0.90;;;;;;;20.73;47.66;98277.44;5012816;28;20026;-59
2022/04/07 09:47:40;;;;;;;3.25;0.65;;;;;;;20.71;48.34;98271.53;5012787;28;20034;-59
2022/04/07 09:50:10;;;;;;;3.03;0.75;;;;;;;20.72;48.11;98259.94;5011824;28;20026;-59
2022/04/07 09:52:41;;;;;;;4.47;1.00;;;;;;;20.72;48.07;98260.75;5015559;28;20056;-59
2022/04/07 09:55:08;;;;;;;3.85;1.00;;;;;;;20.76;47.84;98266.44;5016690;28;20025;-57
2022/04/07 09:57:37;;;;;;;4.43;1.08;;;;;;;20.75;47.41;98268.28;5016102;28;20026;-59
2022/04/07 10:00:05;;;;;;;6.45;1.00;;;;;;;20.77;47.26;98268.88;5016322;28;20474;-58
2022/04/07 10:02:30;;;;;;;4.90;0.90;;;;;;;20.75;47.56;98263.00;5016080;28;20026;-57
2022/04/07 10:04:56;;;;;;;3.75;1.05;;;;;;;20.73;46.75;98264.19;5016087;28;20430;-57
2022/04/07 10:07:24;;;;;;;4.75;0.80;;;;;;;20.71;47.20;98271.53;5016727;28;20033;-58
2022/04/07 10:09:51;;;;;;;4.90;1.08;;;;;;;20.70;47.55;98256.69;5015452;28;20037;-57
2022/04/07 10:12:20;;;;;;;4.05;0.95;;;;;;;20.71;47.45;98282.13;5016337;28;20022;-62
2022/04/07 10:14:49;;;;;;;5.72;1.08;;;;;;;20.69;47.47;98271.75;5016482;28;20474;-58
2022/04/07 10:17:14;;;;;;;5.70;1.25;;;;;;;20.72;47.49;98281.13;5015351;28;20034;-59
2022/04/07 10:19:58;;;;;;;9.30;2.13;;;;;;;20.73;47.62;98294.16;5016619;28;20075;-58
2022/04/07 10:22:52;;;;;;;6.03;3.17;;;;;;;20.74;47.56;98292.31;5016545;28;20029;-58
2022/04/07 10:25:18;;;;;;;8.52;4.78;;;;;;;20.75;47.14;98292.09;5015566;28;20026;-57
2022/04/07 10:27:48;;;;;;;8.95;5.43;;;;;;;20.76;47.40;98277.88;5016092;28;20061;-57
2022/04/07 10:30:15;;;;;;;9.48;7.10;;;;;;;20.78;47.49;98282.94;5016040;28;20487;-58
2022/04/07 10:32:43;;;;;;;13.02;9.63;;;;;;;20.78;47.47;98286.41;5015521;28;20028;-59
2022/04/07 10:35:10;;;;;;;14.85;11.00;;;;;;;20.80;47.42;98286.19;5015739;28;20037;-58
2022/04/07 10:37:43;;;;;;;15.88;13.52;;;;;;;20.80;46.61;98284.34;5015877;28;20393;-58
2022/04/07 10:40:36;;;;;;;18.17;16.17;;;;;;;20.79;47.13;98306.56;5015680;28;20509;-58
2022/04/07 10:43:10;;;;;;;18.83;16.83;;;;;;;20.78;46.72;98302.28;5015803;28;20021;-58
2022/04/07 10:45:36;;;;;;;;;;;;;;;20.80;45.46;98310.03;5015564;28;20038;-59
2022/04/07 10:48:18;;;;;;;18.25;15.57;;;;;;;20.78;46.68;98327.94;5015549;28;20008;-59
2022/04/07 10:50:49;;;;;;;17.05;15.35;;;;;;;20.75;46.92;98320.41;5015561;28;20057;-59
2022/04/07 10:53:24;;;;;;;16.77;14.02;;;;;;;20.73;46.24;98349.72;5015110;28;20065;-59
2022/04/07 10:56:13;;;;;;;14.98;13.27;;;;;;;20.75;46.84;98333.66;5015483;28;20048;-59
2022/04/07 10:58:49;;;;;;;17.15;13.57;;;;;;;20.74;47.17;98347.88;5015610;28;20030;-59
2022/04/07 11:01:30;;;;;;;18.38;14.25;;;;;;;20.73;46.96;98333.00;5015691;28;20057;-60
2022/04/07 11:04:23;;;;;;;14.30;12.77;;;;;;;20.75;46.92;98347.69;5014333;28;20373;-58
2022/04/07 11:07:19;;;;;;;13.95;11.35;;;;;;;20.78;47.01;98346.47;5014549;28;20037;-59
2022/04/07 11:09:58;;;;;;;13.43;10.90;;;;;;;20.79;46.93;98335.69;5015486;28;20417;-59
2022/04/07 11:12:32;;;;;;;12.65;10.10;;;;;;;20.80;46.95;98373.53;5015360;28;20104;-58
2022/04/07 11:15:03;;;;;;;12.63;9.52;;;;;;;20.79;46.86;98363.97;5014515;28;20068;-59
2022/04/07 11:17:36;;;;;;;11.52;9.32;;;;;;;20.78;46.75;98378.25;5015096;28;20536;-58
2022/04/07 11:20:01;;;;;;;11.25;8.52;;;;;;;20.75;46.66;98376.78;5014077;28;20030;-59
2022/04/07 11:22:50;;;;;;;11.63;8.27;;;;;;;20.74;46.50;98372.50;5015114;28;20022;-57
2022/04/07 11:25:23;;;;;;;10.23;6.97;;;;;;;20.75;44.47;98400.63;5015187;28;20029;-59
2022/04/07 11:28:11;;;;;;;9.20;6.90;;;;;;;20.74;45.25;98374.34;5014278;28;20041;-59
2022/04/07 11:30:43;;;;;;;9.60;6.60;;;;;;;20.73;45.17;98399.19;5015047;28;20029;-58
2022/04/07 11:33:20;;;;;;;10.48;6.68;;;;;;;20.74;45.36;98401.63;5014647;28;20579;-58